createdAt,value
2018-02-24T00:01:05.207Z,14.30
2018-02-24T00:02:10.819Z,15.07
2018-02-24T00:03:18.080Z,12.57
2018-02-24T00:04:23.549Z,13.70
2018-02-24T00:05:29.603Z,13.77
2018-02-24T00:06:35.676Z,13.68
2018-02-24T00:07:41.912Z,14.55
2018-02-24T00:08:47.503Z,14.00
2018-02-24T00:09:53.668Z,14.10
2018-02-24T00:10:59.372Z,14.38
2018-02-24T00:12:05.168Z,13.80
2018-02-24T00:13:10.670Z,15.25
2018-02-24T00:14:16.834Z,13.73
2018-02-24T00:15:23.073Z,14.30
2018-02-24T00:16:28.515Z,14.75
2018-02-24T00:17:34.802Z,13.60
2018-02-24T00:18:40.220Z,13.98
2018-02-24T00:19:45.472Z,14.90
2018-02-24T00:20:50.882Z,14.25
2018-02-24T00:21:56.356Z,14.40
2018-02-24T00:23:02.488Z,13.30
2018-02-24T00:24:08.594Z,13.20
2018-02-24T00:25:14.701Z,13.68
2018-02-24T00:26:20.989Z,14.68
2018-02-24T00:27:27.104Z,14.48
2018-02-24T00:28:32.367Z,13.68
2018-02-24T00:29:37.909Z,14.68
2018-02-24T00:30:43.945Z,14.23
2018-02-24T00:31:49.388Z,14.40
2018-02-24T00:32:55.086Z,13.62
2018-02-24T00:34:00.614Z,13.60
2018-02-24T00:35:06.213Z,15.00
2018-02-24T00:36:13.119Z,14.68
2018-02-24T00:37:18.691Z,15.27
2018-02-24T00:38:24.057Z,14.32
2018-02-24T00:39:30.462Z,14.43
2018-02-24T00:40:36.130Z,14.90
2018-02-24T00:41:41.662Z,14.15
2018-02-24T00:42:48.424Z,14.10
2018-02-24T00:43:53.899Z,14.50
2018-02-24T00:44:59.332Z,14.32
2018-02-24T00:46:05.338Z,14.90
2018-02-24T00:47:11.169Z,14.90
2018-02-24T00:48:17.141Z,14.93
2018-02-24T00:49:23.131Z,15.27
2018-02-24T00:50:28.624Z,14.10
2018-02-24T00:51:35.451Z,14.98
2018-02-24T00:52:41.918Z,14.80
2018-02-24T00:53:47.484Z,15.05
2018-02-24T00:54:54.541Z,16.10
2018-02-24T00:56:00.639Z,16.27
2018-02-24T00:57:06.386Z,15.82
2018-02-24T00:58:12.287Z,13.77
2018-02-24T00:59:18.794Z,16.05
2018-02-24T01:00:25.006Z,22.42
2018-02-24T01:01:31.693Z,19.05
2018-02-24T01:02:37.490Z,18.23
2018-02-24T01:03:43.351Z,16.27
2018-02-24T01:04:49.872Z,17.27
2018-02-24T01:05:55.500Z,16.85
2018-02-24T01:07:00.942Z,16.30
2018-02-24T01:08:06.934Z,16.12
2018-02-24T01:09:13.403Z,15.57
2018-02-24T01:10:19.120Z,14.85
2018-02-24T01:11:25.139Z,15.27
2018-02-24T01:12:31.161Z,14.73
2018-02-24T01:13:37.167Z,16.00
2018-02-24T01:14:43.455Z,16.35
2018-02-24T01:15:50.052Z,18.85
2018-02-24T01:16:56.387Z,14.35
2018-02-24T01:18:02.057Z,15.05
2018-02-24T01:19:07.711Z,16.17
2018-02-24T01:20:14.419Z,15.25
2018-02-24T01:21:20.068Z,15.32
2018-02-24T01:22:25.793Z,14.68
2018-02-24T01:23:31.748Z,15.35
2018-02-24T01:24:37.498Z,15.10
2018-02-24T01:25:43.352Z,16.50
2018-02-24T01:26:49.211Z,14.60
2018-02-24T01:27:54.980Z,15.63
2018-02-24T01:29:02.857Z,14.80
2018-02-24T01:30:11.517Z,14.50
2018-02-24T01:31:19.357Z,14.70
2018-02-24T01:32:28.803Z,14.90
2018-02-24T01:33:35.409Z,16.02
2018-02-24T01:34:41.087Z,14.15
2018-02-24T01:35:48.991Z,14.98
2018-02-24T01:36:56.419Z,15.30
2018-02-24T01:38:03.109Z,14.27
2018-02-24T01:39:09.154Z,15.05
2018-02-24T01:40:14.414Z,15.43
2018-02-24T01:41:20.864Z,15.70
2018-02-24T01:42:27.985Z,15.93
2018-02-24T01:43:33.582Z,15.77
2018-02-24T01:44:39.947Z,15.77
2018-02-24T01:45:46.550Z,14.73
2018-02-24T01:46:52.452Z,15.52
2018-02-24T01:47:58.053Z,14.90
2018-02-24T01:49:03.775Z,14.63
2018-02-24T01:50:09.426Z,16.05
2018-02-24T01:51:15.064Z,15.10
2018-02-24T01:52:20.554Z,15.20
2018-02-24T01:53:27.046Z,15.80
2018-02-24T01:54:32.863Z,16.40
2018-02-24T01:55:38.937Z,15.97
2018-02-24T01:56:45.744Z,17.23
2018-02-24T01:57:51.551Z,16.20
2018-02-24T01:58:57.361Z,15.43
2018-02-24T02:00:03.449Z,16.35
2018-02-24T02:01:09.175Z,15.77
2018-02-24T02:02:14.804Z,15.07
2018-02-24T02:03:22.081Z,15.82
2018-02-24T02:04:28.228Z,15.52
2018-02-24T02:05:33.972Z,14.57
2018-02-24T02:06:39.753Z,14.30
2018-02-24T02:07:46.232Z,16.00
2018-02-24T02:08:52.636Z,15.82
2018-02-24T02:09:58.580Z,15.82
2018-02-24T02:11:04.395Z,15.65
2018-02-24T02:12:10.674Z,14.65
2018-02-24T02:13:16.640Z,15.32
2018-02-24T02:14:22.406Z,15.57
2018-02-24T02:15:28.843Z,15.93
2018-02-24T02:16:34.487Z,17.05
2018-02-24T02:17:40.743Z,17.62
2018-02-24T02:18:47.064Z,15.45
2018-02-24T02:19:52.288Z,17.40
2018-02-24T02:20:58.715Z,17.85
2018-02-24T02:22:04.349Z,18.00
2018-02-24T02:23:09.931Z,18.13
2018-02-24T02:24:15.893Z,18.27
2018-02-24T02:25:22.164Z,17.73
2018-02-24T02:26:28.394Z,17.67
2018-02-24T02:27:33.820Z,17.25
2018-02-24T02:28:39.032Z,15.40
2018-02-24T02:29:44.417Z,15.60
2018-02-24T02:30:50.044Z,15.85
2018-02-24T02:31:55.906Z,15.23
2018-02-24T02:33:01.251Z,15.18
2018-02-24T02:34:06.624Z,15.48
2018-02-24T02:35:11.730Z,16.00
2018-02-24T02:36:16.770Z,16.05
2018-02-24T02:37:22.053Z,14.32
2018-02-24T02:38:27.380Z,15.60
2018-02-24T02:39:33.466Z,14.63
2018-02-24T02:40:39.297Z,15.50
2018-02-24T02:41:44.856Z,15.57
2018-02-24T02:42:49.856Z,15.23
2018-02-24T02:43:55.335Z,15.40
2018-02-24T02:45:00.666Z,14.63
2018-02-24T02:46:07.390Z,14.75
2018-02-24T02:47:13.451Z,16.45
2018-02-24T02:48:18.804Z,15.07
2018-02-24T02:49:23.962Z,14.68
2018-02-24T02:50:30.472Z,15.40
2018-02-24T02:51:35.943Z,14.32
2018-02-24T02:52:41.968Z,14.77
2018-02-24T02:53:48.176Z,13.75
2018-02-24T02:54:53.740Z,15.50
2018-02-24T02:55:59.417Z,15.60
2018-02-24T02:57:05.072Z,15.15
2018-02-24T02:58:10.649Z,15.73
2018-02-24T02:59:15.769Z,14.73
2018-02-24T03:00:20.889Z,16.30
2018-02-24T03:01:26.143Z,14.75
2018-02-24T03:02:31.498Z,14.07
2018-02-24T03:03:36.868Z,14.20
2018-02-24T03:04:42.527Z,14.10
2018-02-24T03:05:47.612Z,14.30
2018-02-24T03:06:53.394Z,15.30
2018-02-24T03:07:58.496Z,14.82
2018-02-24T03:09:03.776Z,14.63
2018-02-24T03:10:09.203Z,15.32
2018-02-24T03:11:14.646Z,14.87
2018-02-24T03:12:19.891Z,14.50
2018-02-24T03:13:25.129Z,15.05
2018-02-24T03:14:30.951Z,14.23
2018-02-24T03:15:37.905Z,14.30
2018-02-24T03:16:43.217Z,14.73
2018-02-24T03:17:48.376Z,14.63
2018-02-24T03:18:53.268Z,14.70
2018-02-24T03:19:58.250Z,15.15
2018-02-24T03:21:03.974Z,14.73
2018-02-24T03:22:08.943Z,15.20
2018-02-24T03:23:14.692Z,15.63
2018-02-24T03:24:19.759Z,15.50
2018-02-24T03:25:25.021Z,14.93
2018-02-24T03:26:30.355Z,15.20
2018-02-24T03:27:36.769Z,14.63
2018-02-24T03:28:41.832Z,15.02
2018-02-24T03:29:46.905Z,14.93
2018-02-24T03:30:52.792Z,15.27
2018-02-24T03:31:58.518Z,14.48
2018-02-24T03:33:03.737Z,14.90
2018-02-24T03:34:08.822Z,15.68
2018-02-24T03:35:14.539Z,14.98
2018-02-24T03:36:19.594Z,15.25
2018-02-24T03:37:24.489Z,14.80
2018-02-24T03:38:29.544Z,14.95
2018-02-24T03:39:34.744Z,14.38
2018-02-24T03:40:39.725Z,14.55
2018-02-24T03:41:44.762Z,15.98
2018-02-24T03:42:50.466Z,21.30
2018-02-24T03:43:55.286Z,21.45
2018-02-24T03:45:00.153Z,15.90
2018-02-24T03:46:05.338Z,15.25
2018-02-24T03:47:10.385Z,15.32
2018-02-24T03:48:16.187Z,16.20
2018-02-24T03:49:21.267Z,15.30
2018-02-24T03:50:26.617Z,14.40
2018-02-24T03:51:32.630Z,14.10
2018-02-24T03:52:38.320Z,14.87
2018-02-24T03:53:43.195Z,15.18
2018-02-24T03:54:49.012Z,13.57
2018-02-24T03:55:55.346Z,13.80
2018-02-24T03:57:00.196Z,13.70
2018-02-24T03:58:05.787Z,13.38
2018-02-24T03:59:10.851Z,13.13
2018-02-24T04:00:15.568Z,13.10
2018-02-24T04:01:20.617Z,13.98
2018-02-24T04:02:26.700Z,12.77
2018-02-24T04:03:31.597Z,12.82
2018-02-24T04:04:37.368Z,13.38
2018-02-24T04:05:42.552Z,13.62
2018-02-24T04:06:47.637Z,13.40
2018-02-24T04:07:52.546Z,13.40
2018-02-24T04:08:57.847Z,12.65
2018-02-24T04:10:03.975Z,11.77
2018-02-24T04:11:09.762Z,13.07
2018-02-24T04:12:14.735Z,12.35
2018-02-24T04:13:19.877Z,13.00
2018-02-24T04:14:24.916Z,13.00
2018-02-24T04:15:29.886Z,13.32
2018-02-24T04:16:35.071Z,12.43
2018-02-24T04:17:40.127Z,12.60
2018-02-24T04:18:44.895Z,12.63
2018-02-24T04:19:49.885Z,12.77
2018-02-24T04:20:54.940Z,12.10
2018-02-24T04:22:00.794Z,13.10
2018-02-24T04:23:05.911Z,12.37
2018-02-24T04:24:11.004Z,12.60
2018-02-24T04:25:16.553Z,12.87
2018-02-24T04:26:22.289Z,12.77
2018-02-24T04:27:27.130Z,11.70
2018-02-24T04:28:32.108Z,12.37
2018-02-24T04:29:37.525Z,11.70
2018-02-24T04:30:42.558Z,12.85
2018-02-24T04:31:47.782Z,11.63
2018-02-24T04:32:53.140Z,13.20
2018-02-24T04:33:58.266Z,12.05
2018-02-24T04:35:03.286Z,11.82
2018-02-24T04:36:08.128Z,12.30
2018-02-24T04:37:13.070Z,11.90
2018-02-24T04:38:18.674Z,12.37
2018-02-24T04:39:24.421Z,12.47
2018-02-24T04:40:30.423Z,11.90
2018-02-24T04:41:35.168Z,14.98
2018-02-24T04:42:40.740Z,20.65
2018-02-24T04:43:45.589Z,12.37
2018-02-24T04:44:50.338Z,13.15
2018-02-24T04:45:55.236Z,14.30
2018-02-24T04:46:59.997Z,13.77
2018-02-24T04:48:05.812Z,12.95
2018-02-24T04:49:11.102Z,12.20
2018-02-24T04:50:17.130Z,15.38
2018-02-24T04:51:22.767Z,15.05
2018-02-24T04:52:27.590Z,13.98
2018-02-24T04:53:33.321Z,13.62
2018-02-24T04:54:38.927Z,12.40
2018-02-24T04:55:43.674Z,13.15
2018-02-24T04:56:48.630Z,13.25
2018-02-24T04:57:53.730Z,13.32
2018-02-24T04:58:59.217Z,12.57
2018-02-24T05:00:04.211Z,13.48
2018-02-24T05:01:08.973Z,12.88
2018-02-24T05:02:13.810Z,13.30
2018-02-24T05:03:18.513Z,12.37
2018-02-24T05:04:23.395Z,13.30
2018-02-24T05:05:28.225Z,12.98
2018-02-24T05:06:33.094Z,12.40
2018-02-24T05:07:38.766Z,12.70
2018-02-24T05:08:44.573Z,12.82
2018-02-24T05:09:50.604Z,11.77
2018-02-24T05:10:55.548Z,12.82
2018-02-24T05:12:01.260Z,13.30
2018-02-24T05:13:06.007Z,12.63
2018-02-24T05:14:11.656Z,13.52
2018-02-24T05:15:16.405Z,11.43
2018-02-24T05:16:21.319Z,12.13
2018-02-24T05:17:26.276Z,14.52
2018-02-24T05:18:31.112Z,12.70
2018-02-24T05:19:35.843Z,13.25
2018-02-24T05:20:40.590Z,13.90
2018-02-24T05:21:45.399Z,13.00
2018-02-24T05:22:50.874Z,13.65
2018-02-24T05:23:55.951Z,13.70
2018-02-24T05:25:00.688Z,13.40
2018-02-24T05:26:05.361Z,14.43
2018-02-24T05:27:11.095Z,13.80
2018-02-24T05:28:15.851Z,13.55
2018-02-24T05:29:20.538Z,13.87
2018-02-24T05:30:25.800Z,14.30
2018-02-24T05:31:30.437Z,13.82
2018-02-24T05:32:35.164Z,13.43
2018-02-24T05:33:40.582Z,14.82
2018-02-24T05:34:45.585Z,13.60
2018-02-24T05:35:50.395Z,13.60
2018-02-24T05:36:56.012Z,14.57
2018-02-24T05:38:01.728Z,12.05
2018-02-24T05:39:06.837Z,11.98
2018-02-24T05:40:11.731Z,13.40
2018-02-24T05:41:16.596Z,11.88
2018-02-24T05:42:21.348Z,12.20
2018-02-24T05:43:26.893Z,13.73
2018-02-24T05:44:31.755Z,14.00
2018-02-24T05:45:36.504Z,13.15
2018-02-24T05:46:41.688Z,12.70
2018-02-24T05:47:47.201Z,12.93
2018-02-24T05:48:53.177Z,12.60
2018-02-24T05:49:58.187Z,13.15
2018-02-24T05:51:03.218Z,12.50
2018-02-24T05:52:14.469Z,11.95
2018-02-24T05:53:19.757Z,11.93
2018-02-24T05:54:24.982Z,12.57
2018-02-24T05:55:31.148Z,12.98
2018-02-24T05:56:36.145Z,12.20
2018-02-24T05:57:42.052Z,11.68
2018-02-24T05:58:46.860Z,12.23
2018-02-24T05:59:51.768Z,12.05
2018-02-24T06:00:57.990Z,11.50
2018-02-24T06:02:03.312Z,11.70
2018-02-24T06:03:08.766Z,12.63
2018-02-24T06:04:14.097Z,12.32
2018-02-24T06:05:19.542Z,11.80
2018-02-24T06:06:24.896Z,13.10
2018-02-24T06:07:31.850Z,11.25
2018-02-24T06:08:37.952Z,12.98
2018-02-24T06:09:42.903Z,12.25
2018-02-24T06:10:48.611Z,11.75
2018-02-24T06:11:53.671Z,12.30
2018-02-24T06:12:59.848Z,11.50
2018-02-24T06:14:05.585Z,12.00
2018-02-24T06:15:11.681Z,11.23
2018-02-24T06:16:16.647Z,10.90
2018-02-24T06:17:22.550Z,11.12
2018-02-24T06:18:28.700Z,11.20
2018-02-24T06:19:34.033Z,10.90
2018-02-24T06:20:39.109Z,11.20
2018-02-24T06:21:45.097Z,11.60
2018-02-24T06:22:50.588Z,10.70
2018-02-24T06:23:56.126Z,10.85
2018-02-24T06:25:01.305Z,11.00
2018-02-24T06:26:07.501Z,9.88
2018-02-24T06:27:12.847Z,11.27
2018-02-24T06:28:18.091Z,10.73
2018-02-24T06:29:23.298Z,10.73
2018-02-24T06:30:30.078Z,10.48
2018-02-24T06:31:35.685Z,11.20
2018-02-24T06:32:42.374Z,10.60
2018-02-24T06:33:47.543Z,10.52
2018-02-24T06:34:53.597Z,10.65
2018-02-24T06:35:59.699Z,9.93
2018-02-24T06:37:06.304Z,10.87
2018-02-24T06:38:11.802Z,11.32
2018-02-24T06:39:18.100Z,10.07
2018-02-24T06:40:26.101Z,10.18
2018-02-24T06:41:32.178Z,9.52
2018-02-24T06:42:39.807Z,10.13
2018-02-24T06:43:46.450Z,10.02
2018-02-24T06:44:52.089Z,10.00
2018-02-24T06:45:58.558Z,10.30
2018-02-24T06:47:05.249Z,10.18
2018-02-24T06:48:12.619Z,10.27
2018-02-24T06:49:18.502Z,11.35
2018-02-24T06:50:24.834Z,9.90
2018-02-24T06:51:30.679Z,9.70
2018-02-24T06:52:36.065Z,9.63
2018-02-24T06:53:42.461Z,10.43
2018-02-24T06:54:48.890Z,9.57
2018-02-24T06:55:54.833Z,10.57
2018-02-24T06:57:00.448Z,10.05
2018-02-24T06:58:06.324Z,10.13
2018-02-24T06:59:12.696Z,10.43
2018-02-24T07:00:18.774Z,10.05
2018-02-24T07:01:25.185Z,10.25
2018-02-24T07:02:31.133Z,10.10
2018-02-24T07:03:36.735Z,10.35
2018-02-24T07:04:42.809Z,9.90
2018-02-24T07:05:49.536Z,9.35
2018-02-24T07:06:55.072Z,9.38
2018-02-24T07:08:01.064Z,10.00
2018-02-24T07:09:06.713Z,9.52
2018-02-24T07:10:12.878Z,10.20
2018-02-24T07:11:19.850Z,10.43
2018-02-24T07:12:27.089Z,10.18
2018-02-24T07:13:34.040Z,9.50
2018-02-24T07:14:42.535Z,10.27
2018-02-24T07:15:52.151Z,9.70
2018-02-24T07:17:00.565Z,9.15
2018-02-24T07:18:08.357Z,9.77
2018-02-24T07:19:19.460Z,8.60
2018-02-24T07:20:28.386Z,9.13
2018-02-24T07:21:36.046Z,9.85
2018-02-24T07:22:42.791Z,9.00
2018-02-24T07:23:48.858Z,9.80
2018-02-24T07:24:58.340Z,9.20
2018-02-24T07:26:06.959Z,9.75
2018-02-24T07:27:15.088Z,10.55
2018-02-24T07:28:23.098Z,9.98
2018-02-24T07:29:30.535Z,9.38
2018-02-24T07:30:37.947Z,9.38
2018-02-24T07:31:46.535Z,9.48
2018-02-24T07:32:54.091Z,8.57
2018-02-24T07:34:00.434Z,8.10
2018-02-24T07:35:09.571Z,9.13
2018-02-24T07:36:16.097Z,10.00
2018-02-24T07:37:22.270Z,9.80
2018-02-24T07:38:28.807Z,9.68
2018-02-24T07:39:37.595Z,9.82
2018-02-24T07:40:44.520Z,10.63
2018-02-24T07:41:52.291Z,31.63
2018-02-24T07:42:58.815Z,11.40
2018-02-24T07:44:05.301Z,10.80
2018-02-24T07:45:14.693Z,10.60
2018-02-24T07:46:21.202Z,9.25
2018-02-24T07:47:27.638Z,9.32
2018-02-24T07:48:35.215Z,10.10
2018-02-24T07:49:41.865Z,10.13
2018-02-24T07:50:50.762Z,11.02
2018-02-24T07:51:58.106Z,10.73
2018-02-24T07:53:06.081Z,9.60
2018-02-24T07:54:12.716Z,9.73
2018-02-24T07:55:19.198Z,10.48
2018-02-24T07:56:25.713Z,9.80
2018-02-24T07:57:31.442Z,10.45
2018-02-24T07:58:36.991Z,10.00
2018-02-24T07:59:42.570Z,11.07
2018-02-24T08:00:48.652Z,11.43
2018-02-24T08:01:54.190Z,11.97
2018-02-24T08:03:01.036Z,11.07
2018-02-24T08:04:07.379Z,10.70
2018-02-24T08:05:13.451Z,11.70
2018-02-24T08:06:19.471Z,12.23
2018-02-24T08:07:25.126Z,11.05
2018-02-24T08:08:31.912Z,9.98
2018-02-24T08:09:37.510Z,10.27
2018-02-24T08:10:44.068Z,10.18
2018-02-24T08:11:49.541Z,9.45
2018-02-24T08:12:55.111Z,9.13
2018-02-24T08:14:01.664Z,9.38
2018-02-24T08:15:07.194Z,8.45
2018-02-24T08:16:13.002Z,9.10
2018-02-24T08:17:19.395Z,8.60
2018-02-24T08:18:25.015Z,11.43
2018-02-24T08:19:30.954Z,18.08
2018-02-24T08:20:36.714Z,18.98
2018-02-24T08:21:42.294Z,15.43
2018-02-24T08:22:47.962Z,11.43
2018-02-24T08:23:54.401Z,10.40
2018-02-24T08:24:59.645Z,10.77
2018-02-24T08:26:05.853Z,12.18
2018-02-24T08:27:11.419Z,9.32
2018-02-24T08:28:18.407Z,8.90
2018-02-24T08:29:24.854Z,9.40
2018-02-24T08:30:31.111Z,8.40
2018-02-24T08:31:37.389Z,9.80
2018-02-24T08:32:42.923Z,8.20
2018-02-24T08:33:49.329Z,8.25
2018-02-24T08:34:55.183Z,8.68
2018-02-24T08:36:00.516Z,8.20
2018-02-24T08:37:06.194Z,9.50
2018-02-24T08:38:13.351Z,9.65
2018-02-24T08:39:19.608Z,12.40
2018-02-24T08:40:25.309Z,11.60
2018-02-24T08:41:31.537Z,10.45
2018-02-24T08:42:36.991Z,8.90
2018-02-24T08:43:42.469Z,9.23
2018-02-24T08:44:48.866Z,8.70
2018-02-24T08:45:55.563Z,10.50
2018-02-24T08:47:02.620Z,9.27
2018-02-24T08:48:08.172Z,11.23
2018-02-24T08:49:13.804Z,9.60
2018-02-24T08:50:19.688Z,9.40
2018-02-24T08:51:25.519Z,9.43
2018-02-24T08:52:31.625Z,9.10
2018-02-24T08:53:37.080Z,10.25
2018-02-24T08:54:42.668Z,10.43
2018-02-24T08:55:48.143Z,9.73
2018-02-24T08:56:53.753Z,9.20
2018-02-24T08:57:59.361Z,8.88
2018-02-24T08:59:04.979Z,9.13
2018-02-24T09:00:11.072Z,10.18
2018-02-24T09:01:16.450Z,9.00
2018-02-24T09:02:22.492Z,9.30
2018-02-24T09:03:27.879Z,9.48
2018-02-24T09:04:35.845Z,9.45
2018-02-24T09:05:41.178Z,9.80
2018-02-24T09:06:46.850Z,9.40
2018-02-24T09:07:52.472Z,9.73
2018-02-24T09:08:58.184Z,10.18
2018-02-24T09:10:04.464Z,10.10
2018-02-24T09:11:10.022Z,9.88
2018-02-24T09:12:15.611Z,10.00
2018-02-24T09:13:21.091Z,9.15
2018-02-24T09:14:26.492Z,10.75
2018-02-24T09:15:32.332Z,10.02
2018-02-24T09:16:37.929Z,9.80
2018-02-24T09:17:43.603Z,9.73
2018-02-24T09:18:48.961Z,10.38
2018-02-24T09:19:54.362Z,9.45
2018-02-24T09:21:00.342Z,9.30
2018-02-24T09:22:06.332Z,9.13
2018-02-24T09:23:11.871Z,9.15
2018-02-24T09:24:17.324Z,9.45
2018-02-24T09:25:23.023Z,9.50
2018-02-24T09:26:28.545Z,47.47
2018-02-24T09:27:33.961Z,10.68
2018-02-24T09:28:39.271Z,10.57
2018-02-24T09:29:44.831Z,9.05
2018-02-24T09:30:51.239Z,9.85
2018-02-24T09:31:56.967Z,9.48
2018-02-24T09:33:02.501Z,9.38
2018-02-24T09:34:07.910Z,9.90
2018-02-24T09:35:13.309Z,8.27
2018-02-24T09:36:19.120Z,8.82
2018-02-24T09:37:24.475Z,8.20
2018-02-24T09:38:31.515Z,9.15
2018-02-24T09:39:37.729Z,9.10
2018-02-24T09:40:43.397Z,9.68
2018-02-24T09:41:48.727Z,9.63
2018-02-24T09:42:54.451Z,9.25
2018-02-24T09:43:59.802Z,9.40
2018-02-24T09:45:06.214Z,9.20
2018-02-24T09:46:12.074Z,9.18
2018-02-24T09:47:17.681Z,9.70
2018-02-24T09:48:23.312Z,8.88
2018-02-24T09:49:29.406Z,9.00
2018-02-24T09:50:35.679Z,8.63
2018-02-24T09:51:41.778Z,8.55
2018-02-24T09:52:47.194Z,11.05
2018-02-24T09:53:53.342Z,9.48
2018-02-24T09:54:59.157Z,9.13
2018-02-24T09:56:04.450Z,9.43
2018-02-24T09:57:09.895Z,8.68
2018-02-24T09:58:15.344Z,8.82
2018-02-24T09:59:20.769Z,9.10
2018-02-24T10:00:26.086Z,8.80
2018-02-24T10:01:32.237Z,8.95
2018-02-24T10:02:37.571Z,9.37
2018-02-24T10:03:43.296Z,9.15
2018-02-24T10:04:48.481Z,12.75
2018-02-24T10:05:54.627Z,9.52
2018-02-24T10:06:59.957Z,9.50
2018-02-24T10:08:05.427Z,8.13
2018-02-24T10:09:10.692Z,8.90
2018-02-24T10:10:16.096Z,16.85
2018-02-24T10:11:21.538Z,8.97
2018-02-24T10:12:28.371Z,9.23
2018-02-24T10:13:34.007Z,8.48
2018-02-24T10:14:39.986Z,8.10
2018-02-24T10:15:45.726Z,8.98
2018-02-24T10:16:51.101Z,8.77
2018-02-24T10:17:56.711Z,8.45
2018-02-24T10:19:02.099Z,8.98
2018-02-24T10:20:08.966Z,9.52
2018-02-24T10:21:15.023Z,8.53
2018-02-24T10:22:20.961Z,9.20
2018-02-24T10:23:30.148Z,8.95
2018-02-24T10:24:35.785Z,8.20
2018-02-24T10:25:40.994Z,8.55
2018-02-24T10:26:46.638Z,8.65
2018-02-24T10:27:52.122Z,7.50
2018-02-24T10:28:58.426Z,9.73
2018-02-24T10:30:03.525Z,10.27
2018-02-24T10:31:08.827Z,8.70
2018-02-24T10:32:15.612Z,9.77
2018-02-24T10:33:20.881Z,9.00
2018-02-24T10:34:26.403Z,8.48
2018-02-24T10:35:32.396Z,8.00
2018-02-24T10:36:37.773Z,8.18
2018-02-24T10:37:43.046Z,8.15
2018-02-24T10:38:48.183Z,7.80
2018-02-24T10:39:53.773Z,8.18
2018-02-24T10:40:58.919Z,7.62
2018-02-24T10:42:05.036Z,7.90
2018-02-24T10:43:10.208Z,8.02
2018-02-24T10:44:15.432Z,7.37
2018-02-24T10:45:20.772Z,7.90
2018-02-24T10:46:26.391Z,7.07
2018-02-24T10:47:32.011Z,7.28
2018-02-24T10:48:37.307Z,8.45
2018-02-24T10:49:43.741Z,7.78
2018-02-24T10:50:49.237Z,7.78
2018-02-24T10:51:54.757Z,7.53
2018-02-24T10:52:59.974Z,7.00
2018-02-24T10:54:05.357Z,7.00
2018-02-24T10:55:10.862Z,7.82
2018-02-24T10:56:17.228Z,7.18
2018-02-24T10:57:23.303Z,6.80
2018-02-24T10:58:29.176Z,7.30
2018-02-24T10:59:35.211Z,8.02
2018-02-24T11:00:41.558Z,8.45
2018-02-24T11:01:46.927Z,7.20
2018-02-24T11:02:52.282Z,7.20
2018-02-24T11:03:57.634Z,7.28
2018-02-24T11:05:02.871Z,7.30
2018-02-24T11:06:08.073Z,7.20
2018-02-24T11:07:13.308Z,9.30
2018-02-24T11:08:18.608Z,11.23
2018-02-24T11:09:24.083Z,8.80
2018-02-24T11:10:29.330Z,7.50
2018-02-24T11:11:34.678Z,7.50
2018-02-24T11:12:40.715Z,7.62
2018-02-24T11:13:45.838Z,7.87
2018-02-24T11:14:51.595Z,7.40
2018-02-24T11:15:57.762Z,7.30
2018-02-24T11:17:03.881Z,7.18
2018-02-24T11:18:09.923Z,7.45
2018-02-24T11:19:16.032Z,7.32
2018-02-24T11:20:21.331Z,8.23
2018-02-24T11:21:27.343Z,7.20
2018-02-24T11:22:32.746Z,7.90
2018-02-24T11:23:38.291Z,7.33
2018-02-24T11:24:43.836Z,7.50
2018-02-24T11:25:49.480Z,7.50
2018-02-24T11:26:54.877Z,8.60
2018-02-24T11:28:00.558Z,7.20
2018-02-24T11:29:06.087Z,7.50
2018-02-24T11:30:11.441Z,7.87
2018-02-24T11:31:16.759Z,7.55
2018-02-24T11:32:21.843Z,8.23
2018-02-24T11:33:27.193Z,9.47
2018-02-24T11:34:32.381Z,8.68
2018-02-24T11:35:38.203Z,7.00
2018-02-24T11:36:43.742Z,7.27
2018-02-24T11:37:50.392Z,7.18
2018-02-24T11:38:55.673Z,7.20
2018-02-24T11:40:00.923Z,7.03
2018-02-24T11:41:06.225Z,7.07
2018-02-24T11:42:11.730Z,7.20
2018-02-24T11:43:17.954Z,6.65
2018-02-24T11:44:23.141Z,7.18
2018-02-24T11:45:28.544Z,7.20
2018-02-24T11:46:33.926Z,7.90
2018-02-24T11:47:40.251Z,6.85
2018-02-24T11:48:45.892Z,7.10
2018-02-24T11:49:51.219Z,7.80
2018-02-24T11:50:56.377Z,7.28
2018-02-24T11:52:01.980Z,6.90
2018-02-24T11:53:08.392Z,7.03
2018-02-24T11:54:13.582Z,7.30
2018-02-24T11:55:19.158Z,6.85
2018-02-24T11:56:25.731Z,7.80
2018-02-24T11:57:31.142Z,8.77
2018-02-24T11:58:36.811Z,6.97
2018-02-24T11:59:42.981Z,7.32
2018-02-24T12:00:49.236Z,6.78
2018-02-24T12:01:55.103Z,6.80
2018-02-24T12:03:00.110Z,7.00
2018-02-24T12:04:05.712Z,6.32
2018-02-24T12:05:11.027Z,7.30
2018-02-24T12:06:17.073Z,6.60
2018-02-24T12:07:22.372Z,6.90
2018-02-24T12:08:27.836Z,6.15
2018-02-24T12:09:33.358Z,7.05
2018-02-24T12:10:38.712Z,6.73
2018-02-24T12:11:44.745Z,6.72
2018-02-24T12:12:50.436Z,6.70
2018-02-24T12:13:56.451Z,6.80
2018-02-24T12:15:02.225Z,6.60
2018-02-24T12:16:08.098Z,6.78
2018-02-24T12:17:13.380Z,6.97
2018-02-24T12:18:18.855Z,6.33
2018-02-24T12:19:24.302Z,5.75
2018-02-24T12:20:29.686Z,6.60
2018-02-24T12:21:36.015Z,7.00
2018-02-24T12:22:41.145Z,5.75
2018-02-24T12:23:46.597Z,6.65
2018-02-24T12:24:52.636Z,6.90
2018-02-24T12:25:57.916Z,6.18
2018-02-24T12:27:03.280Z,6.45
2018-02-24T12:28:08.458Z,6.20
2018-02-24T12:29:13.581Z,6.50
2018-02-24T12:30:19.523Z,6.43
2018-02-24T12:31:25.374Z,6.30
2018-02-24T12:32:31.864Z,7.12
2018-02-24T12:33:37.153Z,6.30
2018-02-24T12:34:43.211Z,6.70
2018-02-24T12:37:00.049Z,6.60
2018-02-24T12:38:05.559Z,7.30
2018-02-24T12:39:11.555Z,6.82
2018-02-24T12:40:16.942Z,6.87
2018-02-24T12:41:22.653Z,6.50
2018-02-24T12:42:28.711Z,7.15
2018-02-24T12:43:34.386Z,7.35
2018-02-24T12:44:39.732Z,7.82
2018-02-24T12:45:45.062Z,6.30
2018-02-24T12:46:50.404Z,6.78
2018-02-24T12:47:55.733Z,7.20
2018-02-24T12:49:00.906Z,7.10
2018-02-24T12:50:07.209Z,7.75
2018-02-24T12:51:12.522Z,7.30
2018-02-24T12:52:18.234Z,7.10
2018-02-24T12:53:24.261Z,7.32
2018-02-24T12:54:29.500Z,7.45
2018-02-24T12:55:35.430Z,6.90
2018-02-24T12:56:41.342Z,7.32
2018-02-24T12:57:47.798Z,7.97
2018-02-24T12:58:53.067Z,7.20
2018-02-24T12:59:59.216Z,7.37
2018-02-24T13:01:05.466Z,6.10
2018-02-24T13:02:12.174Z,6.95
2018-02-24T13:03:17.394Z,7.37
2018-02-24T13:04:22.709Z,6.87
2018-02-24T13:05:28.105Z,6.85
2018-02-24T13:06:33.338Z,7.62
2018-02-24T13:07:39.072Z,7.28
2018-02-24T13:08:44.422Z,7.22
2018-02-24T13:09:50.407Z,7.60
2018-02-24T13:10:55.520Z,7.12
2018-02-24T13:12:00.980Z,7.25
2018-02-24T13:13:06.341Z,6.80
2018-02-24T13:14:11.913Z,6.80
2018-02-24T13:15:19.674Z,6.95
2018-02-24T13:16:26.015Z,7.25
2018-02-24T13:17:31.239Z,7.30
2018-02-24T13:18:36.575Z,7.40
2018-02-24T13:19:41.790Z,6.00
2018-02-24T13:20:47.023Z,6.60
2018-02-24T13:21:52.763Z,6.00
2018-02-24T13:22:58.824Z,7.03
2018-02-24T13:24:04.278Z,7.43
2018-02-24T13:25:09.760Z,7.47
2018-02-24T13:26:14.996Z,6.90
2018-02-24T13:27:20.322Z,7.25
2018-02-24T13:28:34.690Z,7.28
2018-02-24T13:29:40.067Z,6.75
2018-02-24T13:30:45.815Z,7.57
2018-02-24T13:31:51.340Z,7.20
2018-02-24T13:32:57.413Z,6.47
2018-02-24T13:34:02.937Z,6.57
2018-02-24T13:35:08.706Z,7.18
2018-02-24T13:36:15.035Z,6.75
2018-02-24T13:37:20.706Z,6.40
2018-02-24T13:38:25.817Z,7.82
2018-02-24T13:39:31.303Z,6.18
2018-02-24T13:40:36.962Z,7.45
2018-02-24T13:41:46.004Z,7.85
2018-02-24T13:42:51.534Z,7.05
2018-02-24T13:43:56.876Z,6.80
2018-02-24T13:45:02.513Z,6.87
2018-02-24T13:46:07.957Z,7.60
2018-02-24T13:47:14.401Z,6.93
2018-02-24T13:48:20.487Z,6.68
2018-02-24T13:49:25.813Z,6.97
2018-02-24T13:50:32.077Z,6.80
2018-02-24T13:51:39.130Z,7.10
2018-02-24T13:52:45.398Z,6.18
2018-02-24T13:53:50.585Z,6.50
2018-02-24T13:54:56.055Z,6.75
2018-02-24T13:56:01.411Z,6.20
2018-02-24T13:57:07.475Z,6.60
2018-02-24T13:58:16.226Z,6.75
2018-02-24T13:59:21.487Z,6.10
2018-02-24T14:00:26.560Z,6.37
2018-02-24T14:01:32.264Z,7.22
2018-02-24T14:02:38.753Z,7.05
2018-02-24T14:03:44.128Z,6.70
2018-02-24T14:04:49.455Z,6.20
2018-02-24T14:05:54.836Z,6.20
2018-02-24T14:07:00.790Z,6.20
2018-02-24T14:08:06.380Z,5.93
2018-02-24T14:09:11.736Z,5.40
2018-02-24T14:10:17.880Z,5.57
2018-02-24T14:11:23.217Z,6.10
2018-02-24T14:12:29.039Z,5.35
2018-02-24T14:13:34.542Z,5.90
2018-02-24T14:14:40.205Z,5.05
2018-02-24T14:15:45.711Z,5.80
2018-02-24T14:16:51.000Z,6.30
2018-02-24T14:18:00.474Z,5.53
2018-02-24T14:19:06.046Z,6.10
2018-02-24T14:20:11.529Z,5.65
2018-02-24T14:21:16.710Z,5.07